CST,Max TemperatureF,Mean TemperatureF,Min TemperatureF,Max Dew PointF,MeanDew PointF,Min DewpointF,Max Humidity, Mean Humidity, Min Humidity, Max Sea Level PressureIn, Mean Sea Level PressureIn, Min Sea Level PressureIn, Max VisibilityMiles, Mean VisibilityMiles, Min VisibilityMiles, Max Wind SpeedMPH, Mean Wind SpeedMPH, Max Gust SpeedMPH,PrecipitationIn, CloudCover, Events, WindDirDegrees
2013-12-1,52,41,29,32,29,27,92,68,44,30.17,30.08,29.94,10,9,6,10,5,13,0.00,1,,31
2013-12-2,55,44,32,41,35,28,89,74,59,29.92,29.75,29.65,10,7,4,15,7,19,0.00,3,,155
2013-12-3,59,46,32,46,41,32,100,81,62,29.65,29.62,29.56,10,2,0,17,6,21,0.00,3,Fog,177
2013-12-4,56,40,24,50,41,16,100,87,74,29.95,29.63,29.50,10,4,0,21,9,27,0.00,7,Fog,200
2013-12-5,24,20,16,16,9,5,74,65,56,30.40,30.18,29.92,10,9,2,24,11,31,T,3,Snow,308
2013-12-6,19,14,8,5,0,-4,67,53,39,30.70,30.53,30.40,10,10,10,16,10,22,0.00,6,,342
2013-12-7,20,11,2,1,-1,-3,87,63,39,30.81,30.69,30.52,10,10,10,13,8,16,0.00,1,,31
2013-12-8,22,19,15,19,14,2,92,73,53,30.48,30.14,29.99,10,4,1,16,8,20,0.04,8,Snow,95
2013-12-9,18,11,3,13,4,-4,92,73,53,30.38,30.30,30.15,10,9,7,15,8,20,0.00,0,,269
2013-12-10,30,17,3,14,7,-4,79,61,42,30.31,30.27,30.19,10,10,10,20,9,31,0.00,1,,240
2013-12-11,27,14,1,19,6,-5,75,56,37,30.68,30.52,30.27,10,10,8,24,9,31,T,3,,311
2013-12-12,38,20,2,20,9,-4,79,60,40,30.61,30.42,30.22,10,10,10,18,8,25,0.00,0,,225
2013-12-13,35,28,20,32,29,17,100,81,61,30.20,30.00,29.93,10,4,1,13,7,17,0.57,6,Rain-Snow,123
2013-12-14,32,23,13,31,22,11,100,90,80,30.22,30.04,29.90,7,3,0,20,11,26,0.13,7,Fog-Snow,346
2013-12-15,26,20,13,21,18,10,92,86,80,30.20,30.12,30.00,6,4,3,9,5,14,0.00,6,,120
2013-12-16,27,22,17,23,18,15,92,87,81,30.19,30.07,29.99,6,3,1,14,6,16,0.00,6,,187
2013-12-17,40,28,16,29,20,11,96,68,40,30.29,30.22,30.14,10,7,1,22,8,28,0.01,3,Snow,277
2013-12-18,51,34,16,36,25,12,77,61,45,30.25,30.00,29.84,10,10,10,22,11,31,0.00,0,,200
2013-12-19,55,47,38,45,40,32,93,80,66,29.85,29.77,29.70,10,9,4,13,7,17,T,5,,173
2013-12-20,45,36,27,39,31,25,100,96,92,29.93,29.81,29.70,10,3,1,16,8,20,0.13,8,Rain,334
2013-12-21,29,27,25,27,24,22,92,87,81,29.91,29.78,29.63,7,4,0,21,10,24,0.19,8,Fog-Rain-Snow,10
2013-12-22,28,18,8,27,21,5,92,83,73,30.37,29.91,29.67,10,5,0,17,10,21,0.24,7,Fog-Snow,325
2013-12-23,12,4,-5,3,-3,-11,88,73,58,30.65,30.56,30.38,10,10,10,16,9,23,0.00,2,,287
2013-12-24,21,4,-13,15,0,-17,92,77,61,30.65,30.49,30.26,10,10,7,20,7,23,0.00,3,,164
2013-12-25,33,27,20,25,23,17,96,83,69,30.33,30.27,30.20,10,6,2,16,8,22,0.00,7,,252
2013-12-26,44,30,15,29,24,15,92,73,53,30.33,30.27,30.19,10,10,10,20,9,27,0.00,0,,230
2013-12-27,49,35,20,33,28,20,92,69,46,30.35,30.28,30.19,10,10,4,16,8,22,0.00,0,,228
2013-12-28,54,45,35,32,30,29,82,62,41,30.18,30.03,29.87,10,10,10,20,10,26,0.00,0,,211
2013-12-29,41,24,7,30,12,-5,88,69,50,30.37,30.15,29.89,10,10,8,22,13,32,T,4,Snow,319
2013-12-30,27,16,4,14,3,-6,72,59,45,30.38,30.29,30.17,10,10,10,15,6,19,0.00,5,,223
2013-12-31,41,26,11,24,16,8,84,65,46,30.38,30.25,30.12,10,10,9,16,7,20,0.00,1,,83